Time;durP1;ratioP1;P1;durP2;ratioP2;P2;SDS_P1;SDS_P2;PMS_P1;PMS_P2;Temp;Humidity;BMP_temperature;BMP_pressure;BME280_temperature;BME280_humidity;BME280_pressure;Samples;Min_cycle;Max_cycle;Signal;HPM_P1;HPM_P2
2023/01/18 00:01:04;;;;;;;2.92;0.90;;;12.00;96.40;;;;;;4968458;28;20503;-59
2023/01/18 00:03:32;;;;;;;1.00;0.50;;;12.00;96.20;;;;;;5036237;28;20028;-59
2023/01/18 00:06:00;;;;;;;1.02;0.70;;;12.10;95.50;;;;;;5036362;28;20034;-59
2023/01/18 00:08:30;;;;;;;0.73;0.50;;;12.20;94.80;;;;;;5036791;28;20025;-59
2023/01/18 00:11:14;;;;;;;3.75;1.20;;;12.20;95.20;;;;;;5035927;28;20052;-59
2023/01/18 00:13:40;;;;;;;2.00;1.00;;;12.00;96.60;;;;;;5036214;28;20499;-59
2023/01/18 00:16:12;;;;;;;4.65;1.17;;;12.10;95.30;;;;;;5036228;28;20065;-59
2023/01/18 00:18:39;;;;;;;3.08;0.93;;;12.20;94.50;;;;;;5035761;28;20026;-59
2023/01/18 00:21:07;;;;;;;1.38;0.70;;;12.30;94.00;;;;;;5036235;28;20414;-59
2023/01/18 00:23:33;;;;;;;2.42;0.82;;;12.20;94.80;;;;;;5035945;28;20096;-59
2023/01/18 00:26:04;;;;;;;3.33;1.13;;;12.30;94.40;;;;;;5036341;28;20025;-59
2023/01/18 00:28:30;;;;;;;1.05;0.47;;;12.10;95.80;;;;;;5036122;28;20106;-59
2023/01/18 00:30:56;;;;;;;3.35;1.00;;;12.10;95.00;;;;;;5035808;28;20026;-59
2023/01/18 00:33:23;;;;;;;2.00;1.08;;;12.10;95.00;;;;;;5035796;28;20053;-59
2023/01/18 00:36:00;;;;;;;0.70;0.55;;;12.10;95.80;;;;;;5035821;28;20475;-59
2023/01/18 00:38:27;;;;;;;2.15;0.98;;;12.00;95.60;;;;;;5035589;28;20033;-59
2023/01/18 00:40:53;;;;;;;2.08;0.80;;;12.10;95.70;;;;;;5035703;28;20075;-59
2023/01/18 00:46:15;;;;;;;2.30;1.00;;;12.10;95.90;;;;;;5035512;28;20029;-59
2023/01/18 00:48:41;;;;;;;2.05;0.95;;;12.00;95.90;;;;;;5035927;28;20040;-59
2023/01/18 00:51:10;;;;;;;2.05;0.60;;;12.10;95.40;;;;;;5035583;28;20029;-59
2023/01/18 00:53:37;;;;;;;1.65;0.85;;;12.20;94.80;;;;;;5035556;28;20029;-59
2023/01/18 00:56:05;;;;;;;1.15;0.63;;;12.20;95.20;;;;;;5035606;28;20148;-59
2023/01/18 00:58:32;;;;;;;5.43;1.45;;;12.10;95.20;;;;;;5035388;28;20036;-59
2023/01/18 01:00:58;;;;;;;2.72;0.85;;;12.10;95.40;;;;;;5035103;28;20070;-59
2023/01/18 01:03:23;;;;;;;2.42;0.98;;;12.00;95.90;;;;;;5035386;28;20100;-59
2023/01/18 01:08:34;;;;;;;2.55;1.15;;;12.00;94.80;;;;;;5035225;28;20065;-59
2023/01/18 01:11:09;;;;;;;2.75;1.30;;;12.10;95.30;;;;;;5035110;28;20097;-59
2023/01/18 01:27:19;;;;;;;7.75;3.78;;;11.40;98.30;;;;;;5034727;28;20025;-59
2023/01/18 01:29:45;;;;;;;8.63;4.90;;;11.20;99.40;;;;;;5034747;28;20390;-59
2023/01/18 01:32:11;;;;;;;25.85;8.65;;;11.10;99.90;;;;;;5034993;28;20120;-59
2023/01/18 01:34:37;;;;;;;13.23;6.22;;;11.10;99.90;;;;;;5034850;28;20104;-59
2023/01/18 01:37:03;;;;;;;14.00;6.32;;;10.90;99.90;;;;;;5034519;28;20128;-59
2023/01/18 01:39:30;;;;;;;23.95;9.38;;;10.90;99.90;;;;;;5034783;28;20467;-59
2023/01/18 01:41:56;;;;;;;52.83;17.58;;;10.70;99.90;;;;;;5034738;28;20200;-59
2023/01/18 01:44:27;;;;;;;73.15;23.08;;;10.70;99.90;;;;;;5034690;28;20026;-59
2023/01/18 01:47:23;;;;;;;65.68;19.70;;;10.60;99.90;;;;;;5034754;28;20116;-59
2023/01/18 01:49:55;;;;;;;108.65;34.42;;;10.40;99.90;;;;;;5034557;28;20113;-59
2023/01/18 01:52:24;;;;;;;104.22;33.45;;;10.30;99.90;;;;;;5034634;28;20040;-59
2023/01/18 01:55:17;;;;;;;92.22;30.95;;;10.30;99.90;;;;;;5034683;28;20037;-59
2023/01/18 01:58:06;;;;;;;97.80;36.15;;;10.20;99.90;;;;;;5034200;28;20037;-59
2023/01/18 02:00:33;;;;;;;75.70;34.35;;;10.10;99.90;;;;;;5016832;28;20033;-59
2023/01/18 02:03:04;;;;;;;68.45;32.83;;;9.90;99.90;;;;;;5034465;28;20025;-59
2023/01/18 02:05:32;;;;;;;65.85;31.02;;;9.90;99.90;;;;;;5034343;28;20069;-59
2023/01/18 02:08:01;;;;;;;71.97;31.20;;;9.90;99.90;;;;;;5034378;28;20487;-59
2023/01/18 02:10:28;;;;;;;90.20;38.13;;;9.80;99.90;;;;;;5044334;28;20525;-59
2023/01/18 02:12:55;;;;;;;102.90;41.47;;;9.70;99.90;;;;;;5054302;28;20040;-59
2023/01/18 02:15:35;;;;;;;90.43;39.20;;;9.80;99.90;;;;;;5054374;28;20041;-59
2023/01/18 02:18:19;;;;;;;62.83;30.25;;;9.70;99.90;;;;;;5054004;28;20083;-59
2023/01/18 02:20:57;;;;;;;58.78;27.35;;;9.60;99.90;;;;;;5034303;28;20022;-59
2023/01/18 02:23:45;;;;;;;49.78;23.27;;;9.70;99.90;;;;;;5034267;28;20076;-59
2023/01/18 02:26:52;;;;;;;60.50;26.75;;;9.60;99.90;;;;;;5034363;28;20029;-59
2023/01/18 02:29:43;;;;;;;101.20;36.65;;;9.60;99.90;;;;;;5024096;28;20041;-59
2023/01/18 02:32:18;;;;;;;69.00;28.13;;;9.50;99.90;;;;;;5056336;28;20087;-59
2023/01/18 02:34:51;;;;;;;51.95;23.23;;;9.50;99.90;;;;;;5057870;28;20037;-59
2023/01/18 02:37:39;;;;;;;31.05;15.73;;;9.50;99.90;;;;;;5057975;28;20036;-59
2023/01/18 02:40:15;;;;;;;28.95;12.85;;;9.40;99.90;;;;;;5058089;28;20029;-59
2023/01/18 02:48:34;;;;;;;18.38;8.27;;;9.50;99.90;;;;;;5057906;28;20061;-59
2023/01/18 02:51:00;;;;;;;20.48;8.85;;;9.50;99.90;;;;;;5057846;28;20463;-59
2023/01/18 02:53:26;;;;;;;16.77;9.15;;;9.60;99.90;;;;;;5057672;28;20056;-59
2023/01/18 02:56:08;;;;;;;15.27;7.53;;;9.60;99.90;;;;;;5057648;28;20482;-59
2023/01/18 02:58:56;;;;;;;10.25;5.10;;;9.60;99.90;;;;;;5057531;28;20029;-59
2023/01/18 03:01:32;;;;;;;11.05;5.53;;;9.70;99.90;;;;;;5057505;28;20026;-59
2023/01/18 03:04:07;;;;;;;10.27;4.28;;;9.80;99.90;;;;;;5057557;28;20043;-59
2023/01/18 03:06:34;;;;;;;10.25;5.22;;;9.90;99.90;;;;;;5057875;28;20103;-59
2023/01/18 03:09:00;;;;;;;5.68;2.78;;;10.00;99.90;;;;;;5057300;28;20029;-59
2023/01/18 03:11:44;;;;;;;3.03;1.80;;;10.10;99.90;;;;;;5075765;28;20119;-59
2023/01/18 03:14:26;;;;;;;2.05;1.02;;;10.30;99.90;;;;;;5077279;28;20082;-59
2023/01/18 03:17:18;;;;;;;4.28;1.00;;;10.50;99.90;;;;;;5077096;28;20040;-59
2023/01/18 03:25:48;;;;;;;5.78;1.83;;;10.50;99.90;;;;;;5057191;28;20032;-59
2023/01/18 03:34:18;;;;;;;1.20;0.70;;;10.50;99.90;;;;;;5076882;28;20029;-59
2023/01/18 03:36:46;;;;;;;3.13;1.30;;;10.70;99.30;;;;;;5068716;28;20044;-59
2023/01/18 03:39:32;;;;;;;1.00;0.55;;;10.70;98.90;;;;;;5076470;28;20485;-59
2023/01/18 03:42:20;;;;;;;2.33;0.77;;;10.70;98.70;;;;;;5076690;28;20074;-59
2023/01/18 03:44:55;;;;;;;2.30;1.10;;;10.60;99.00;;;;;;5076222;28;20037;-59
2023/01/18 03:47:21;;;;;;;0.68;0.35;;;10.50;99.30;;;;;;5076783;28;20029;-59
2023/01/18 03:49:48;;;;;;;0.88;0.40;;;10.70;98.50;;;;;;5076776;28;20032;-59
2023/01/18 03:52:16;;;;;;;3.38;0.70;;;10.70;98.60;;;;;;5076666;28;20418;-59
2023/01/18 03:54:50;;;;;;;2.00;0.60;;;10.70;98.10;;;;;;5076679;28;20026;-59
2023/01/18 03:57:31;;;;;;;0.68;0.40;;;10.70;98.10;;;;;;5076399;28;20028;-59
2023/01/18 03:59:58;;;;;;;0.93;0.68;;;10.70;98.20;;;;;;5076476;28;20029;-59
2023/01/18 04:02:26;;;;;;;1.50;0.82;;;10.70;97.70;;;;;;5076575;28;20060;-59
2023/01/18 04:04:56;;;;;;;1.30;0.60;;;10.70;98.00;;;;;;5076550;28;20021;-59
2023/01/18 04:07:24;;;;;;;1.88;0.70;;;10.70;98.00;;;;;;5076658;28;20087;-59
2023/01/18 04:09:50;;;;;;;1.92;1.27;;;10.70;97.50;;;;;;5076156;28;20088;-59
2023/01/18 04:12:17;;;;;;;1.73;0.88;;;10.80;97.00;;;;;;5076241;28;20115;-59
2023/01/18 04:14:43;;;;;;;4.13;1.60;;;10.70;97.30;;;;;;5076237;28;20498;-59
2023/01/18 04:17:09;;;;;;;3.50;2.13;;;10.60;97.60;;;;;;5076243;28;20077;-59
2023/01/18 04:19:35;;;;;;;6.10;1.08;;;10.70;97.50;;;;;;5063812;28;20032;-59
2023/01/18 04:22:01;;;;;;;1.23;0.85;;;10.60;98.10;;;;;;5056089;28;20025;-59
2023/01/18 04:24:28;;;;;;;3.38;1.30;;;10.60;97.80;;;;;;5055980;28;20029;-59
2023/01/18 04:26:54;;;;;;;1.23;0.70;;;10.50;98.30;;;;;;5056175;28;20031;-59
2023/01/18 04:29:20;;;;;;;1.85;1.20;;;10.70;97.10;;;;;;5055960;28;20036;-59
2023/01/18 04:31:46;;;;;;;3.15;1.40;;;10.70;97.40;;;;;;5070644;28;20612;-59
2023/01/18 04:34:12;;;;;;;2.72;1.05;;;10.60;97.60;;;;;;5075615;28;20024;-59
2023/01/18 04:36:38;;;;;;;1.65;1.10;;;10.60;97.60;;;;;;5075641;28;20028;-59
2023/01/18 04:39:04;;;;;;;2.03;0.90;;;10.60;97.90;;;;;;5075866;28;20070;-59
2023/01/18 04:41:30;;;;;;;2.28;0.90;;;10.40;98.60;;;;;;5075607;28;20043;-59
2023/01/18 04:43:56;;;;;;;1.45;0.70;;;10.50;98.20;;;;;;5075532;28;20475;-59
2023/01/18 04:46:21;;;;;;;2.85;1.40;;;10.50;98.30;;;;;;5075574;28;20017;-59
2023/01/18 04:48:51;;;;;;;1.08;0.60;;;10.50;98.70;;;;;;5075393;28;20035;-59
2023/01/18 04:51:17;;;;;;;0.50;0.30;;;10.60;98.10;;;;;;5074679;28;20478;-59
2023/01/18 04:53:43;;;;;;;1.40;0.75;;;10.70;98.00;;;;;;5075367;28;20024;-59
2023/01/18 04:56:10;;;;;;;3.28;0.93;;;10.70;98.20;;;;;;5075001;28;20501;-59
2023/01/18 04:58:36;;;;;;;3.85;1.20;;;10.60;98.70;;;;;;5075405;28;20032;-59
2023/01/18 05:01:04;;;;;;;2.35;0.80;;;10.60;99.20;;;;;;5075215;28;20028;-59
2023/01/18 05:03:30;;;;;;;1.55;0.98;;;10.60;98.90;;;;;;5075170;28;20017;-59
2023/01/18 05:05:56;;;;;;;1.88;0.93;;;10.50;99.20;;;;;;5075262;28;20016;-59
2023/01/18 05:08:22;;;;;;;2.92;1.23;;;10.60;99.40;;;;;;5075072;28;20059;-59
2023/01/18 05:10:49;;;;;;;5.22;1.90;;;10.60;99.80;;;;;;5074864;28;20083;-59
2023/01/18 05:13:15;;;;;;;16.48;7.18;;;10.50;99.90;;;;;;5075026;28;20029;-59
2023/01/18 05:15:41;;;;;;;17.77;7.25;;;10.40;99.90;;;;;;5074924;28;20544;-59
2023/01/18 05:18:07;;;;;;;29.33;11.32;;;10.30;99.90;;;;;;5074867;28;20098;-59
2023/01/18 05:20:33;;;;;;;19.58;9.27;;;10.30;99.90;;;;;;5054901;28;20032;-59
2023/01/18 05:22:59;;;;;;;78.32;27.27;;;10.20;99.90;;;;;;5054932;28;20025;-59
2023/01/18 05:25:24;;;;;;;53.17;19.23;;;10.20;99.90;;;;;;5054750;28;20056;-59
2023/01/18 05:27:50;;;;;;;43.22;17.38;;;9.90;99.90;;;;;;5054786;28;20083;-59
2023/01/18 05:30:17;;;;;;;27.77;13.43;;;9.90;99.90;;;;;;5057199;28;20029;-59
2023/01/18 05:32:42;;;;;;;26.65;10.98;;;9.80;99.90;;;;;;5074497;28;20040;-59
2023/01/18 05:35:09;;;;;;;17.20;6.93;;;9.80;99.90;;;;;;5074605;28;20150;-59
2023/01/18 05:37:35;;;;;;;18.58;7.30;;;9.80;99.90;;;;;;5074605;28;20115;-59
2023/01/18 05:40:01;;;;;;;10.13;4.63;;;9.80;99.90;;;;;;5074423;28;20138;-59
2023/01/18 05:42:27;;;;;;;6.28;3.70;;;9.80;99.90;;;;;;5074624;28;20036;-59
2023/01/18 05:44:52;;;;;;;8.00;3.75;;;9.70;99.90;;;;;;5074519;28;20130;-59
2023/01/18 05:47:18;;;;;;;7.07;2.70;;;9.80;99.90;;;;;;5074661;28;20116;-59
2023/01/18 05:49:44;;;;;;;5.60;2.75;;;9.70;99.90;;;;;;5074424;28;20028;-59
2023/01/18 05:52:10;;;;;;;12.68;4.05;;;9.70;99.90;;;;;;5074421;28;20035;-59
2023/01/18 05:54:36;;;;;;;8.52;3.15;;;9.60;99.90;;;;;;5074383;28;20043;-59
2023/01/18 05:57:02;;;;;;;11.63;4.10;;;9.50;99.90;;;;;;5074377;28;20509;-59
2023/01/18 05:59:28;;;;;;;8.30;3.97;;;9.40;99.90;;;;;;5074289;28;20083;-59
2023/01/18 06:01:54;;;;;;;8.60;3.75;;;9.40;99.90;;;;;;5074353;28;20168;-59
2023/01/18 06:04:20;;;;;;;5.63;2.42;;;9.40;99.90;;;;;;5074411;28;20039;-59
2023/01/18 06:06:46;;;;;;;9.35;2.88;;;9.30;99.90;;;;;;5074671;28;20029;-59
2023/01/18 06:09:12;;;;;;;15.52;3.58;;;9.30;99.90;;;;;;5074419;28;20035;-59
2023/01/18 06:11:38;;;;;;;13.35;2.90;;;9.10;99.90;;;;;;5074290;28;20397;-59
2023/01/18 06:14:04;;;;;;;9.45;3.60;;;9.10;99.90;;;;;;5074256;28;20028;-59
2023/01/18 06:16:30;;;;;;;8.48;3.42;;;9.00;99.90;;;;;;5074255;28;20047;-59
2023/01/18 06:18:56;;;;;;;9.95;3.25;;;9.00;99.90;;;;;;5066966;28;20087;-59
2023/01/18 06:21:22;;;;;;;5.18;2.58;;;9.00;99.90;;;;;;5054011;28;20063;-59
2023/01/18 06:23:48;;;;;;;6.18;4.15;;;8.70;99.90;;;;;;5054085;28;20024;-59
2023/01/18 06:26:14;;;;;;;8.65;5.22;;;8.70;99.90;;;;;;5054174;28;20108;-59
2023/01/18 06:28:40;;;;;;;11.63;4.28;;;8.70;99.90;;;;;;5045347;28;20036;-59
2023/01/18 06:31:07;;;;;;;10.10;4.60;;;8.60;99.90;;;;;;5068348;28;20033;-59
2023/01/18 06:33:33;;;;;;;25.88;12.05;;;8.60;99.90;;;;;;5074245;28;20045;-59
2023/01/18 06:36:00;;;;;;;39.83;23.10;;;8.60;99.90;;;;;;5071959;28;20032;-59
2023/01/18 06:38:26;;;;;;;21.90;11.55;;;8.50;99.90;;;;;;5073802;28;20053;-59
2023/01/18 06:40:52;;;;;;;9.95;3.55;;;8.60;99.90;;;;;;5073905;28;20103;-59
2023/01/18 06:43:18;;;;;;;10.73;4.75;;;8.60;99.90;;;;;;5073873;28;20056;-59
2023/01/18 06:46:07;;;;;;;12.32;5.07;;;8.50;99.90;;;;;;5072719;28;20033;-59
2023/01/18 06:48:37;;;;;;;8.18;3.28;;;8.50;99.90;;;;;;5053934;28;20163;-59
2023/01/18 06:51:03;;;;;;;8.68;3.00;;;8.50;99.90;;;;;;5051377;28;20069;-58
2023/01/18 06:53:29;;;;;;;10.70;3.80;;;8.40;99.90;;;;;;5051203;28;20084;-58
2023/01/18 06:56:00;;;;;;;12.27;5.43;;;8.40;99.90;;;;;;5054397;28;20138;-58
2023/01/18 06:58:27;;;;;;;14.10;8.35;;;8.30;99.90;;;;;;5053566;28;20384;-58
2023/01/18 07:00:54;;;;;;;13.57;6.78;;;8.30;99.90;;;;;;5055950;28;20017;-58
2023/01/18 07:03:21;;;;;;;10.90;3.60;;;8.30;99.90;;;;;;5073952;28;20455;-58
2023/01/18 07:05:47;;;;;;;14.57;11.50;;;8.20;99.90;;;;;;5065910;28;20104;-58
2023/01/18 07:08:13;;;;;;;15.32;6.70;;;8.10;99.90;;;;;;5053565;28;20080;-58
2023/01/18 07:10:39;;;;;;;15.10;8.88;;;8.10;99.90;;;;;;5053292;28;20546;-58
2023/01/18 07:13:05;;;;;;;16.40;7.13;;;8.10;99.90;;;;;;5053618;28;20073;-58
2023/01/18 07:15:31;;;;;;;14.38;5.30;;;8.10;99.90;;;;;;5056318;28;20029;-58
2023/01/18 07:17:57;;;;;;;14.77;9.20;;;8.10;99.90;;;;;;5056661;28;20124;-58
2023/01/18 07:20:23;;;;;;;14.70;8.43;;;8.10;99.90;;;;;;5057299;28;20080;-58
2023/01/18 07:22:51;;;;;;;20.15;5.05;;;8.10;99.90;;;;;;5057015;28;20429;-58
2023/01/18 07:25:19;;;;;;;15.13;4.40;;;8.20;99.90;;;;;;5056843;28;20075;-58
2023/01/18 07:27:47;;;;;;;9.02;2.53;;;8.20;99.90;;;;;;5057118;28;20136;-58
2023/01/18 07:30:14;;;;;;;16.13;7.47;;;8.50;99.90;;;;;;5056659;28;20509;-58
2023/01/18 07:32:51;;;;;;;8.20;3.22;;;8.60;99.90;;;;;;5055908;28;20410;-58
2023/01/18 07:35:23;;;;;;;19.23;8.32;;;8.70;99.90;;;;;;5056521;28;20518;-58
2023/01/18 07:37:51;;;;;;;23.17;12.93;;;8.70;99.90;;;;;;5056583;28;20037;-58
2023/01/18 07:40:19;;;;;;;26.02;9.40;;;8.80;99.90;;;;;;5056813;28;20544;-58
2023/01/18 07:42:46;;;;;;;21.92;9.10;;;8.80;99.90;;;;;;5056994;28;20028;-58
2023/01/18 07:45:12;;;;;;;15.82;7.88;;;8.90;99.90;;;;;;5056510;28;20418;-58
2023/01/18 07:47:42;;;;;;;16.55;7.45;;;8.90;99.90;;;;;;5057004;28;20086;-58
2023/01/18 07:50:09;;;;;;;16.02;7.28;;;9.00;99.90;;;;;;5057137;28;20071;-58
2023/01/18 07:52:35;;;;;;;33.72;20.90;;;9.00;99.90;;;;;;5056587;28;20032;-58
2023/01/18 07:55:00;;;;;;;34.13;14.60;;;9.20;99.90;;;;;;5056883;28;20025;-58
2023/01/18 07:57:26;;;;;;;20.55;8.70;;;9.40;99.90;;;;;;5056638;28;20029;-58
2023/01/18 07:59:52;;;;;;;16.40;6.53;;;9.40;99.90;;;;;;5053842;28;20054;-58
2023/01/18 08:02:18;;;;;;;17.17;6.95;;;9.50;99.90;;;;;;5053577;28;20029;-58
2023/01/18 08:04:48;;;;;;;10.13;4.97;;;9.50;99.90;;;;;;5055255;28;20083;-58
2023/01/18 08:07:16;;;;;;;12.90;7.50;;;9.50;99.90;;;;;;5055901;28;20044;-58
2023/01/18 08:09:43;;;;;;;10.90;5.78;;;9.60;99.90;;;;;;5054528;28;20419;-59
2023/01/18 08:12:12;;;;;;;27.92;12.57;;;9.70;99.90;;;;;;5055440;28;20482;-58
2023/01/18 08:14:42;;;;;;;19.48;8.88;;;9.80;99.90;;;;;;5055284;28;20040;-58
2023/01/18 08:17:08;;;;;;;12.27;6.60;;;9.90;99.90;;;;;;5056004;28;20552;-58
2023/01/18 08:19:35;;;;;;;16.42;7.53;;;9.90;99.90;;;;;;5055500;28;20033;-58
2023/01/18 08:22:01;;;;;;;19.27;10.20;;;9.90;99.90;;;;;;5055101;28;20045;-59
2023/01/18 08:24:27;;;;;;;16.45;9.25;;;10.70;99.90;;;;;;5055233;28;20033;-59
2023/01/18 08:26:53;;;;;;;30.92;14.77;;;12.00;99.90;;;;;;5054905;28;20041;-59
2023/01/18 08:29:19;;;;;;;15.05;7.78;;;13.20;99.90;;;;;;5054476;28;20409;-58
2023/01/18 08:31:45;;;;;;;15.40;7.30;;;14.30;99.90;;;;;;5069732;28;20029;-59
2023/01/18 08:34:11;;;;;;;13.68;6.82;;;15.70;97.90;;;;;;5073441;28;20206;-59
2023/01/18 08:36:37;;;;;;;14.07;7.45;;;16.30;94.90;;;;;;5063318;28;20021;-59
2023/01/18 08:39:03;;;;;;;17.77;8.82;;;16.90;91.10;;;;;;5061949;28;20029;-59
2023/01/18 08:41:29;;;;;;;11.52;6.60;;;17.20;83.00;;;;;;5075131;28;20043;-59
2023/01/18 08:43:56;;;;;;;11.95;6.82;;;18.10;81.70;;;;;;5074881;28;20194;-59
2023/01/18 08:46:23;;;;;;;22.05;8.55;;;19.00;78.50;;;;;;5068554;28;20021;-59
2023/01/18 08:48:51;;;;;;;14.93;7.45;;;19.60;70.70;;;;;;5054426;28;20223;-59
2023/01/18 08:51:17;;;;;;;18.23;9.25;;;19.40;64.40;;;;;;5059462;28;20029;-60
2023/01/18 08:53:45;;;;;;;24.48;13.90;;;20.10;67.90;;;;;;5055330;28;20028;-60
2023/01/18 08:56:11;;;;;;;28.83;15.52;;;20.70;64.80;;;;;;5060203;28;20039;-60
2023/01/18 08:58:37;;;;;;;29.52;15.35;;;19.90;64.40;;;;;;5066139;28;20033;-60
2023/01/18 09:01:07;;;;;;;27.98;14.93;;;19.80;59.90;;;;;;5053572;28;20043;-61
2023/01/18 09:03:34;;;;;;;32.22;17.02;;;20.50;62.60;;;;;;5054993;28;20033;-61
2023/01/18 09:06:02;;;;;;;30.60;15.63;;;20.60;62.60;;;;;;5053946;28;20033;-60
2023/01/18 09:08:28;;;;;;;27.77;14.20;;;21.20;58.90;;;;;;5054884;28;20491;-61
2023/01/18 09:10:54;;;;;;;25.85;13.13;;;21.40;56.90;;;;;;5055236;28;20053;-61
2023/01/18 09:13:20;;;;;;;28.77;15.50;;;21.20;56.30;;;;;;5054847;28;20467;-61
2023/01/18 09:15:46;;;;;;;24.17;13.63;;;21.40;58.80;;;;;;5055202;28;20028;-61
2023/01/18 09:18:13;;;;;;;31.85;15.02;;;21.80;56.60;;;;;;5055000;28;20037;-62
2023/01/18 09:20:39;;;;;;;27.98;14.18;;;21.30;54.80;;;;;;5054620;28;20020;-61
2023/01/18 09:23:07;;;;;;;30.17;16.95;;;21.90;56.10;;;;;;5055077;28;20082;-61
2023/01/18 09:25:35;;;;;;;30.05;16.35;;;22.10;54.70;;;;;;5055150;28;20481;-62
2023/01/18 09:28:02;;;;;;;28.83;15.82;;;23.00;55.40;;;;;;5054347;28;20028;-61
2023/01/18 09:30:29;;;;;;;20.77;11.77;;;23.10;53.70;;;;;;5055108;28;20070;-62
2023/01/18 09:32:56;;;;;;;21.80;12.07;;;23.70;52.70;;;;;;5054325;28;20025;-62
2023/01/18 09:35:22;;;;;;;18.17;10.75;;;23.60;50.00;;;;;;5054586;28;20115;-62
2023/01/18 09:37:48;;;;;;;19.60;10.52;;;22.90;49.10;;;;;;5054579;28;20113;-62
2023/01/18 09:40:20;;;;;;;20.85;10.40;;;22.70;51.40;;;;;;5054625;28;20052;-62
2023/01/18 09:42:50;;;;;;;18.48;11.80;;;22.60;52.40;;;;;;5054079;28;20406;-61
2023/01/18 09:45:34;;;;;;;19.73;12.33;;;23.10;48.00;;;;;;5053769;28;20021;-62
2023/01/18 09:48:11;;;;;;;24.73;13.57;;;23.00;48.40;;;;;;5053331;28;20028;-62
2023/01/18 09:50:44;;;;;;;23.35;14.40;;;22.40;49.80;;;;;;5053282;28;20242;-62
2023/01/18 09:53:34;;;;;;;23.05;14.05;;;21.40;51.60;;;;;;5053617;28;20136;-62
2023/01/18 09:56:11;;;;;;;20.20;12.27;;;20.60;53.90;;;;;;5053601;28;20033;-62
2023/01/18 09:58:36;;;;;;;20.90;12.43;;;20.00;54.40;;;;;;5053651;28;20411;-62
2023/01/18 10:01:15;;;;;;;22.10;11.77;;;19.60;56.70;;;;;;5053656;28;20029;-62
2023/01/18 10:03:50;;;;;;;19.00;10.88;;;19.60;55.80;;;;;;5053804;28;20100;-62
2023/01/18 10:06:23;;;;;;;12.90;8.35;;;19.10;59.00;;;;;;5054239;28;20040;-62
2023/01/18 10:09:04;;;;;;;11.50;6.63;;;18.50;56.80;;;;;;5053524;28;20040;-62
2023/01/18 10:11:46;;;;;;;7.38;4.95;;;17.70;58.70;;;;;;5072466;28;20132;-62
2023/01/18 10:14:23;;;;;;;8.20;4.55;;;18.10;58.00;;;;;;5073816;28;20033;-62
2023/01/18 10:16:56;;;;;;;5.85;3.78;;;19.00;55.90;;;;;;5073374;28;20412;-62
2023/01/18 10:19:32;;;;;;;9.05;4.40;;;19.00;55.20;;;;;;5063116;28;20607;-63
2023/01/18 10:22:38;;;;;;;10.55;4.32;;;18.60;55.70;;;;;;5068959;28;20037;-61
2023/01/18 10:25:28;;;;;;;10.88;4.53;;;18.90;54.50;;;;;;5053645;28;20029;-62
2023/01/18 10:27:57;;;;;;;11.77;2.80;;;18.40;51.20;;;;;;5053547;28;20155;-62
2023/01/18 10:30:40;;;;;;;4.00;1.23;;;18.10;50.10;;;;;;5057124;28;20265;-62
2023/01/18 10:33:27;;;;;;;3.22;1.65;;;17.60;50.10;;;;;;5073520;28;20028;-62
2023/01/18 10:35:59;;;;;;;4.22;1.50;;;17.50;51.10;;;;;;5072715;28;20028;-62
2023/01/18 10:38:28;;;;;;;5.22;0.80;;;17.30;52.00;;;;;;5073353;28;20382;-62
2023/01/18 10:40:58;;;;;;;1.80;0.80;;;17.20;51.40;;;;;;5072968;28;20467;-62
2023/01/18 10:43:32;;;;;;;5.63;1.05;;;17.30;52.00;;;;;;5062845;28;20112;-61
2023/01/18 10:45:58;;;;;;;6.13;1.08;;;17.30;50.60;;;;;;5049713;28;20068;-62
2023/01/18 10:48:24;;;;;;;2.42;1.00;;;17.40;51.20;;;;;;5053238;28;20045;-62
2023/01/18 10:51:02;;;;;;;2.50;0.85;;;17.40;50.40;;;;;;5056255;28;20032;-62
2023/01/18 10:53:30;;;;;;;6.88;1.98;;;17.30;50.80;;;;;;5056507;28;20025;-62
2023/01/18 10:56:04;;;;;;;8.32;2.03;;;17.40;51.20;;;;;;5057214;28;20036;-62
2023/01/18 10:58:39;;;;;;;6.75;1.42;;;17.60;54.40;;;;;;5054450;28;20732;-62
2023/01/18 11:01:11;;;;;;;6.22;1.55;;;18.20;52.10;;;;;;5057712;28;20047;-62
2023/01/18 11:03:45;;;;;;;7.25;1.85;;;18.10;48.80;;;;;;5055948;28;20025;-62
2023/01/18 11:06:15;;;;;;;6.07;1.25;;;18.50;51.20;;;;;;5057642;28;20417;-62
2023/01/18 11:08:42;;;;;;;5.28;1.63;;;18.70;48.00;;;;;;5057384;28;20032;-62
2023/01/18 11:11:11;;;;;;;2.70;1.00;;;18.90;48.80;;;;;;5059565;28;20110;-62
2023/01/18 11:13:41;;;;;;;20.58;2.67;;;19.10;46.80;;;;;;5061020;28;20111;-63
2023/01/18 11:16:16;;;;;;;4.50;1.20;;;19.30;48.20;;;;;;5057195;28;20033;-63
2023/01/18 11:19:00;;;;;;;8.95;1.70;;;19.00;47.20;;;;;;5056833;28;20647;-62
2023/01/18 11:21:39;;;;;;;6.95;1.17;;;18.60;47.80;;;;;;5056890;28;20067;-62
2023/01/18 11:24:11;;;;;;;9.85;2.00;;;18.50;47.00;;;;;;5051023;28;20029;-62
2023/01/18 11:26:51;;;;;;;12.38;2.83;;;18.40;48.10;;;;;;5067929;28;20048;-63
2023/01/18 11:29:17;;;;;;;10.25;2.13;;;18.30;46.80;;;;;;5054755;28;20029;-63
2023/01/18 11:31:46;;;;;;;5.97;1.73;;;18.10;49.00;;;;;;5056564;28;20056;-61
2023/01/18 11:34:48;;;;;;;3.88;1.08;;;18.00;47.20;;;;;;5066076;28;20024;-62
2023/01/18 11:37:38;;;;;;;5.78;1.48;;;17.70;47.10;;;;;;5058467;28;20063;-62
2023/01/18 11:40:21;;;;;;;4.63;1.42;;;17.00;48.30;;;;;;5051609;28;20022;-62
2023/01/18 11:42:50;;;;;;;2.53;0.82;;;16.70;49.50;;;;;;5055560;28;20025;-62
2023/01/18 11:45:49;;;;;;;4.03;1.17;;;16.70;49.80;;;;;;5055936;28;20036;-61
2023/01/18 11:48:37;;;;;;;3.83;1.20;;;16.60;50.40;;;;;;5055502;28;20033;-61
2023/01/18 11:51:24;;;;;;;13.60;2.65;;;16.50;50.60;;;;;;5055874;28;20560;-61
2023/01/18 11:54:12;;;;;;;22.05;11.40;;;16.20;51.20;;;;;;5064968;28;20051;-61
2023/01/18 11:56:49;;;;;;;3.35;1.08;;;16.40;50.80;;;;;;5061143;28;20061;-61
2023/01/18 11:59:26;;;;;;;6.13;2.00;;;16.70;52.10;;;;;;5061567;28;20078;-62
2023/01/18 12:01:55;;;;;;;7.13;2.15;;;16.60;50.30;;;;;;5058366;28;20021;-62
2023/01/18 12:05:03;;;;;;;8.05;2.30;;;16.70;53.10;;;;;;5061518;28;20470;-62
2023/01/18 12:07:55;;;;;;;13.95;2.55;;;17.00;51.80;;;;;;5015691;28;20122;-62
2023/01/18 12:10:26;;;;;;;7.03;1.80;;;16.90;51.10;;;;;;5054664;28;20040;-62
2023/01/18 12:13:10;;;;;;;7.18;1.90;;;17.10;50.00;;;;;;5055942;28;20029;-63
2023/01/18 12:16:10;;;;;;;5.35;1.42;;;17.30;51.40;;;;;;5056032;28;20074;-63
2023/01/18 12:19:08;;;;;;;6.00;1.45;;;17.50;49.80;;;;;;5040259;28;20025;-61
2023/01/18 12:22:21;;;;;;;8.20;1.38;;;17.50;49.50;;;;;;5056362;28;20070;-62
2023/01/18 12:25:00;;;;;;;9.93;2.45;;;17.50;48.90;;;;;;5055274;28;20021;-62
2023/01/18 12:27:35;;;;;;;11.75;4.80;;;18.00;48.80;;;;;;5066555;28;20135;-62
2023/01/18 12:30:35;;;;;;;3.55;1.60;;;17.90;48.20;;;;;;5056766;28;20032;-62
2023/01/18 12:33:42;;;;;;;3.83;1.27;;;18.30;47.20;;;;;;5054397;28;20067;-62
2023/01/18 12:36:44;;;;;;;12.43;2.05;;;18.40;46.40;;;;;;5055354;28;20118;-62
2023/01/18 12:39:49;;;;;;;4.88;1.48;;;18.50;46.60;;;;;;5053977;28;20033;-61
2023/01/18 12:42:42;;;;;;;3.83;1.42;;;18.30;46.80;;;;;;5051992;28;20025;-62
2023/01/18 12:45:14;;;;;;;4.75;1.50;;;18.40;45.70;;;;;;5022318;28;20394;-61
2023/01/18 12:47:49;;;;;;;4.57;1.10;;;18.00;45.30;;;;;;5050924;28;20074;-61
2023/01/18 12:50:20;;;;;;;7.50;1.00;;;18.00;45.80;;;;;;5054472;28;20021;-61
2023/01/18 12:53:00;;;;;;;6.60;1.52;;;18.00;46.10;;;;;;5054627;28;20081;-61
2023/01/18 12:55:30;;;;;;;4.53;1.60;;;17.70;46.50;;;;;;5054500;28;20045;-61
2023/01/18 12:57:59;;;;;;;9.13;1.98;;;17.40;46.20;;;;;;5048245;28;20021;-61
2023/01/18 13:00:38;;;;;;;5.15;1.23;;;17.30;47.10;;;;;;5054589;28;20071;-61
2023/01/18 13:03:13;;;;;;;4.15;1.15;;;17.50;46.40;;;;;;5054389;28;20017;-61
2023/01/18 13:05:56;;;;;;;3.50;1.08;;;17.60;46.70;;;;;;5054181;28;20036;-61
2023/01/18 13:08:43;;;;;;;6.03;1.85;;;17.70;46.40;;;;;;5054060;28;20115;-61
2023/01/18 13:11:18;;;;;;;7.13;1.50;;;17.50;47.20;;;;;;5053174;28;20067;-61
2023/01/18 13:13:46;;;;;;;5.00;1.00;;;17.30;46.50;;;;;;5054009;28;20029;-61
2023/01/18 13:16:33;;;;;;;3.63;0.90;;;17.00;46.50;;;;;;5054267;28;20483;-61
2023/01/18 13:19:09;;;;;;;4.40;1.30;;;16.50;46.90;;;;;;5054215;28;20112;-61
2023/01/18 13:21:41;;;;;;;2.80;0.98;;;16.40;48.10;;;;;;5054065;28;20021;-61
2023/01/18 13:24:28;;;;;;;4.72;1.30;;;15.90;48.80;;;;;;5054221;28;20056;-61
2023/01/18 13:27:09;;;;;;;7.28;1.23;;;15.90;50.10;;;;;;5054037;28;20035;-61
2023/01/18 13:29:36;;;;;;;3.22;1.25;;;15.90;51.50;;;;;;5034553;28;20132;-61
2023/01/18 13:32:23;;;;;;;5.47;1.42;;;15.90;49.60;;;;;;5051331;28;20074;-61
2023/01/18 13:35:01;;;;;;;3.13;0.90;;;16.00;50.20;;;;;;5054237;28;20028;-61
2023/01/18 13:37:44;;;;;;;5.68;1.63;;;16.10;48.60;;;;;;5054074;28;20518;-61
2023/01/18 13:40:50;;;;;;;3.65;1.35;;;16.10;49.30;;;;;;5053003;28;20032;-61
2023/01/18 13:43:34;;;;;;;7.35;2.10;;;16.00;49.60;;;;;;5040018;28;20044;-61
2023/01/18 13:46:06;;;;;;;8.38;1.50;;;15.90;49.80;;;;;;5053632;28;20021;-61